Terminal Aerodrome Forecast
Issued by NWS

Home | Current Version | Previous Version | Graphics & Text | Print | Product List | Glossary On
Versions: 1 2 3 4 5 6 7 8 9 10 11 12 13 14 15 16 17 18 19 20 21 22
000
FTUS42 KMHX 241121
TAFPGV
TAF
KPGV 241121Z 2412/2512 00000KT P6SM OVC025
     FM241400 05005KT P6SM SCT035 BKN080
     FM250200 07006KT P6SM OVC050
     FM250600 05007KT P6SM OVC010
      AMD LTD TO CLD VIS AND WIND=

USA.gov is the U.S. government's official web portal to all federal, state and local government web resources and services.